Time;durP1;ratioP1;P1;durP2;ratioP2;P2;SDS_P1;SDS_P2;PMS_P1;PMS_P2;Temp;Humidity;BMP_temperature;BMP_pressure;BME280_temperature;BME280_humidity;BME280_pressure;Samples;Min_cycle;Max_cycle;Signal;HPM_P1;HPM_P2
2021/08/12 00:01:56;;;;;;;6.03;3.40;;;23.90;62.70;;;;;;10011922;28;20366;-67
2021/08/12 00:06:47;;;;;;;6.20;3.78;;;23.90;62.80;;;;;;9995047;28;20084;-66
2021/08/12 00:11:39;;;;;;;4.30;3.50;;;23.80;63.20;;;;;;9994701;28;20034;-66
2021/08/12 00:16:29;;;;;;;6.45;3.35;;;23.80;63.30;;;;;;9992124;28;20546;-66
2021/08/12 00:21:20;;;;;;;7.45;3.58;;;23.80;63.70;;;;;;9986611;28;20042;-66
2021/08/12 00:26:11;;;;;;;6.03;3.92;;;23.70;63.90;;;;;;9998213;28;20030;-66
2021/08/12 00:31:01;;;;;;;5.28;3.28;;;23.80;64.30;;;;;;9990070;28;20074;-66
2021/08/12 00:35:53;;;;;;;5.75;3.38;;;23.80;64.40;;;;;;9992639;28;20321;-65
2021/08/12 00:40:44;;;;;;;7.15;3.17;;;23.70;64.70;;;;;;9993114;28;20405;-66
2021/08/12 00:45:35;;;;;;;6.10;3.00;;;23.40;65.10;;;;;;9993410;28;20060;-66
2021/08/12 00:50:25;;;;;;;7.97;4.07;;;23.50;65.50;;;;;;9994196;28;20030;-66
2021/08/12 00:55:17;;;;;;;7.30;3.33;;;23.50;65.50;;;;;;9994341;28;20080;-67
2021/08/12 01:00:09;;;;;;;4.38;3.17;;;23.00;66.20;;;;;;9999773;28;20108;-66
2021/08/12 01:04:59;;;;;;;3.53;2.40;;;22.80;66.70;;;;;;9997234;28;20053;-65
2021/08/12 01:10:13;;;;;;;4.90;2.75;;;23.00;66.60;;;;;;9999082;28;20029;-67
2021/08/12 01:15:08;;;;;;;4.53;3.40;;;23.10;66.50;;;;;;9993409;28;20089;-66
2021/08/12 01:20:04;;;;;;;3.10;2.80;;;23.10;66.50;;;;;;9998442;28;20018;-66
2021/08/12 01:24:58;;;;;;;3.75;2.60;;;22.90;66.80;;;;;;9997886;28;20547;-66
2021/08/12 01:30:14;;;;;;;7.03;3.70;;;22.90;66.90;;;;;;9999972;28;20117;-67
2021/08/12 01:35:07;;;;;;;3.72;2.58;;;22.90;66.80;;;;;;10004374;28;20033;-64
2021/08/12 01:40:00;;;;;;;5.80;3.33;;;22.80;67.10;;;;;;10002860;28;20034;-65
2021/08/12 01:44:53;;;;;;;3.47;2.58;;;22.70;67.30;;;;;;9998742;28;20121;-67
2021/08/12 01:49:45;;;;;;;3.45;2.55;;;22.70;67.30;;;;;;9996488;28;20018;-66
2021/08/12 01:54:37;;;;;;;4.43;2.60;;;22.70;67.10;;;;;;10002200;28;20124;-66
2021/08/12 01:59:28;;;;;;;4.70;2.80;;;22.60;67.40;;;;;;10000361;28;20104;-66
2021/08/12 02:04:20;;;;;;;5.10;2.80;;;22.60;67.60;;;;;;9998711;28;20034;-66
2021/08/12 02:09:11;;;;;;;5.22;3.60;;;22.40;68.00;;;;;;9992379;28;20033;-67
2021/08/12 02:14:02;;;;;;;7.40;3.83;;;22.40;68.20;;;;;;9996737;28;20048;-67
2021/08/12 02:18:54;;;;;;;6.90;4.25;;;22.40;68.60;;;;;;9999682;28;20705;-67
2021/08/12 02:23:53;;;;;;;7.43;4.00;;;22.40;68.80;;;;;;10004535;28;20030;-66
2021/08/12 02:28:45;;;;;;;6.72;4.38;;;22.30;69.00;;;;;;9999145;28;20057;-66
2021/08/12 02:33:37;;;;;;;4.72;3.67;;;22.40;69.50;;;;;;9999146;28;20607;-66
2021/08/12 02:38:30;;;;;;;6.40;3.50;;;22.20;69.90;;;;;;9994034;28;20516;-66
2021/08/12 02:43:22;;;;;;;7.38;3.67;;;22.10;70.60;;;;;;9992001;28;20026;-66
2021/08/12 02:48:14;;;;;;;7.00;4.18;;;22.10;70.60;;;;;;9993458;28;20436;-67
2021/08/12 02:53:06;;;;;;;7.22;4.13;;;22.20;70.70;;;;;;9993580;28;20053;-65
2021/08/12 02:57:56;;;;;;;5.43;4.07;;;22.20;71.00;;;;;;9992442;28;20500;-65
2021/08/12 03:02:49;;;;;;;5.80;3.45;;;22.00;71.50;;;;;;10000185;28;20037;-66
2021/08/12 03:07:43;;;;;;;6.07;3.47;;;22.00;71.60;;;;;;9993717;28;20636;-66
2021/08/12 03:12:34;;;;;;;6.65;4.15;;;21.90;71.70;;;;;;10002043;28;20039;-66
2021/08/12 03:17:26;;;;;;;6.50;3.55;;;21.90;72.00;;;;;;9994200;28;20037;-66
2021/08/12 03:22:16;;;;;;;7.45;3.65;;;22.00;72.00;;;;;;9999929;28;20030;-66
2021/08/12 03:27:11;;;;;;;5.43;3.38;;;22.00;72.20;;;;;;9996976;28;20037;-66
2021/08/12 03:32:01;;;;;;;4.63;2.90;;;21.90;72.00;;;;;;9991995;28;20042;-66
2021/08/12 03:36:52;;;;;;;5.13;3.13;;;21.90;72.30;;;;;;9985999;28;20076;-66
2021/08/12 03:41:43;;;;;;;4.50;2.97;;;21.90;72.30;;;;;;9990195;28;20030;-66
2021/08/12 03:46:33;;;;;;;5.00;3.38;;;21.90;72.50;;;;;;9995877;28;20022;-66
2021/08/12 03:51:24;;;;;;;6.65;3.72;;;21.80;72.50;;;;;;9994887;28;20030;-66
2021/08/12 03:56:15;;;;;;;7.70;3.95;;;21.80;72.60;;;;;;10000832;28;20149;-66
2021/08/12 04:01:05;;;;;;;5.78;4.28;;;21.70;72.60;;;;;;9993844;28;20136;-66
2021/08/12 04:05:56;;;;;;;6.38;4.18;;;21.70;73.10;;;;;;9998389;28;20392;-66
2021/08/12 04:10:46;;;;;;;5.40;4.00;;;21.70;73.30;;;;;;9996531;28;20342;-66
2021/08/12 04:15:37;;;;;;;5.35;3.78;;;21.70;73.60;;;;;;9998171;28;20373;-66
2021/08/12 04:20:28;;;;;;;5.05;3.20;;;21.70;73.50;;;;;;9994299;28;20037;-67
2021/08/12 04:25:18;;;;;;;6.38;4.50;;;21.60;73.60;;;;;;9988531;28;20316;-67
2021/08/12 04:30:10;;;;;;;5.95;4.00;;;21.60;74.00;;;;;;9988497;28;20037;-67
2021/08/12 04:35:00;;;;;;;6.00;4.22;;;21.50;74.30;;;;;;9998675;28;20038;-67
2021/08/12 04:39:51;;;;;;;6.65;4.47;;;21.50;74.20;;;;;;10006895;28;20053;-66
2021/08/12 04:44:42;;;;;;;9.48;4.82;;;21.40;74.70;;;;;;10009068;28;20038;-66
2021/08/12 04:49:32;;;;;;;11.00;5.85;;;21.40;74.90;;;;;;9998693;28;20030;-65
2021/08/12 04:54:23;;;;;;;6.78;3.97;;;21.40;75.10;;;;;;9999977;28;20046;-65
2021/08/12 04:59:14;;;;;;;6.25;3.58;;;21.60;75.20;;;;;;10002305;28;20609;-66
2021/08/12 05:04:04;;;;;;;6.60;3.90;;;21.70;75.00;;;;;;9995453;28;20149;-67
2021/08/12 05:08:55;;;;;;;6.05;4.90;;;21.60;75.20;;;;;;9999354;28;20033;-66
2021/08/12 05:13:47;;;;;;;5.93;3.60;;;21.60;76.00;;;;;;9995413;28;20088;-67
2021/08/12 05:18:37;;;;;;;5.03;3.63;;;21.50;75.50;;;;;;10005206;28;20030;-66
2021/08/12 05:23:28;;;;;;;10.32;5.60;;;21.50;75.80;;;;;;10006064;28;20049;-66
2021/08/12 05:28:18;;;;;;;7.25;5.05;;;21.40;75.90;;;;;;9999567;28;20523;-65
2021/08/12 05:33:09;;;;;;;8.88;5.47;;;21.50;76.10;;;;;;9995867;28;20074;-66
2021/08/12 05:38:00;;;;;;;10.27;5.22;;;21.50;76.10;;;;;;10002860;28;20500;-66
2021/08/12 05:42:51;;;;;;;10.05;4.97;;;21.60;76.10;;;;;;10000895;28;20393;-66
2021/08/12 05:47:42;;;;;;;9.35;4.38;;;21.50;76.40;;;;;;10001263;28;20137;-66
2021/08/12 05:52:36;;;;;;;7.38;4.63;;;21.60;76.70;;;;;;9994056;28;20047;-66
2021/08/12 05:57:26;;;;;;;8.00;4.97;;;21.80;76.40;;;;;;9997878;28;20080;-66
2021/08/12 06:02:17;;;;;;;12.18;5.40;;;21.80;76.30;;;;;;9997110;28;20027;-67
2021/08/12 06:07:08;;;;;;;9.48;4.80;;;22.00;76.20;;;;;;9993819;28;20026;-68
2021/08/12 06:11:58;;;;;;;12.52;6.70;;;21.90;76.50;;;;;;10002394;28;20038;-66
2021/08/12 06:16:49;;;;;;;9.15;6.85;;;21.90;76.70;;;;;;9993680;28;20046;-66
2021/08/12 06:21:40;;;;;;;10.88;6.13;;;21.80;76.80;;;;;;9998237;28;20594;-65
2021/08/12 06:26:30;;;;;;;10.90;6.55;;;21.90;76.90;;;;;;9996481;28;20515;-66
2021/08/12 06:31:21;;;;;;;8.57;5.97;;;21.90;76.90;;;;;;9989471;28;20093;-65
2021/08/12 06:36:12;;;;;;;10.57;6.45;;;21.90;77.10;;;;;;9996793;28;20535;-65
2021/08/12 06:41:02;;;;;;;12.50;5.78;;;22.00;76.80;;;;;;9997568;28;20060;-67
2021/08/12 06:45:53;;;;;;;10.18;6.15;;;22.00;76.80;;;;;;9995148;28;20091;-67
2021/08/12 06:50:43;;;;;;;9.05;6.20;;;22.20;76.70;;;;;;9990188;28;20042;-69
2021/08/12 06:55:35;;;;;;;8.43;5.57;;;22.20;76.50;;;;;;9999475;28;20041;-68
2021/08/12 07:00:25;;;;;;;10.35;7.05;;;22.30;76.40;;;;;;9999230;28;20022;-68
2021/08/12 07:05:17;;;;;;;9.63;6.22;;;22.50;76.20;;;;;;9996039;28;20030;-69
2021/08/12 07:10:08;;;;;;;11.35;7.13;;;22.50;76.10;;;;;;9998070;28;20586;-68
2021/08/12 07:14:59;;;;;;;11.57;6.85;;;22.70;75.80;;;;;;9996910;28;20274;-68
2021/08/12 07:19:49;;;;;;;9.90;6.75;;;22.80;75.90;;;;;;9996006;28;20527;-66
2021/08/12 07:24:40;;;;;;;9.38;5.50;;;22.80;75.90;;;;;;10001144;28;20034;-68
2021/08/12 07:29:31;;;;;;;9.77;6.32;;;22.90;75.80;;;;;;10000342;28;20055;-69
2021/08/12 07:34:22;;;;;;;6.95;5.25;;;23.00;75.80;;;;;;9998682;28;20531;-68
2021/08/12 07:39:15;;;;;;;10.50;6.28;;;23.10;75.60;;;;;;9997573;28;20021;-67
2021/08/12 07:44:06;;;;;;;9.27;6.18;;;23.10;75.40;;;;;;9997430;28;20412;-67
2021/08/12 07:48:57;;;;;;;10.68;5.75;;;23.20;75.20;;;;;;9998988;28;20614;-67
2021/08/12 07:53:47;;;;;;;8.93;5.97;;;23.30;74.70;;;;;;9998481;28;20042;-67
2021/08/12 07:58:38;;;;;;;8.90;5.55;;;23.40;74.50;;;;;;9997632;28;20034;-66
2021/08/12 08:03:29;;;;;;;11.23;7.03;;;23.60;74.40;;;;;;9997131;28;20307;-66
2021/08/12 08:08:19;;;;;;;11.88;6.28;;;23.60;74.20;;;;;;9996935;28;20030;-66
2021/08/12 08:13:10;;;;;;;12.25;5.75;;;23.80;74.00;;;;;;10005478;28;20045;-67
2021/08/12 08:18:02;;;;;;;10.75;5.70;;;23.90;73.50;;;;;;10003714;28;20053;-69
2021/08/12 08:22:52;;;;;;;9.07;5.05;;;24.20;73.10;;;;;;10000491;28;20022;-71
2021/08/12 08:27:43;;;;;;;9.27;5.78;;;24.40;72.40;;;;;;10018631;28;20034;-67
2021/08/12 08:32:34;;;;;;;11.20;4.68;;;24.40;72.20;;;;;;10002392;28;20396;-72
2021/08/12 08:37:25;;;;;;;9.63;5.70;;;24.60;71.60;;;;;;9999392;28;20137;-70
2021/08/12 08:42:16;;;;;;;8.10;5.30;;;24.60;71.50;;;;;;10003204;28;20030;-70
2021/08/12 08:47:08;;;;;;;8.15;4.38;;;24.80;71.00;;;;;;10004347;28;20121;-67
2021/08/12 08:52:00;;;;;;;9.55;5.13;;;24.90;70.60;;;;;;10004709;28;20049;-68
2021/08/12 08:56:51;;;;;;;6.18;4.63;;;24.90;70.40;;;;;;9995235;28;20042;-73
2021/08/12 09:01:42;;;;;;;7.03;4.05;;;24.90;70.40;;;;;;10007068;28;20030;-67
2021/08/12 09:06:32;;;;;;;7.80;4.32;;;25.00;69.80;;;;;;10007222;28;20030;-74
2021/08/12 09:11:24;;;;;;;9.50;3.95;;;25.20;69.20;;;;;;9999283;28;20072;-68
2021/08/12 09:16:34;;;;;;;6.20;3.75;;;25.30;68.90;;;;;;10000414;28;20553;-66
2021/08/12 09:21:25;;;;;;;5.93;4.05;;;25.40;68.30;;;;;;9999610;28;20228;-67
2021/08/12 09:26:24;;;;;;;5.75;3.80;;;25.60;68.30;;;;;;10020218;28;20596;-67
2021/08/12 09:31:14;;;;;;;4.72;3.20;;;25.80;67.50;;;;;;10006312;28;20036;-67
2021/08/12 09:36:19;;;;;;;5.28;3.90;;;26.00;67.20;;;;;;9999070;28;20038;-67
2021/08/12 09:41:09;;;;;;;3.70;2.92;;;26.30;66.10;;;;;;10000167;28;20080;-69
2021/08/12 09:46:00;;;;;;;6.45;4.10;;;26.40;65.70;;;;;;10000091;28;20109;-69
2021/08/12 09:51:06;;;;;;;5.82;3.40;;;26.40;65.40;;;;;;9998675;28;20041;-67
2021/08/12 09:56:09;;;;;;;7.63;4.30;;;26.70;64.30;;;;;;10003439;28;20505;-67
2021/08/12 10:01:18;;;;;;;4.90;3.72;;;26.80;64.00;;;;;;10000128;28;20030;-69
2021/08/12 10:06:21;;;;;;;9.07;3.80;;;27.00;63.60;;;;;;9993775;28;20582;-68
2021/08/12 10:11:28;;;;;;;7.13;3.80;;;26.90;63.40;;;;;;9994315;28;20036;-68
2021/08/12 10:16:18;;;;;;;7.78;3.72;;;26.90;63.50;;;;;;9992941;28;20042;-67
2021/08/12 10:21:11;;;;;;;5.20;4.28;;;27.10;63.10;;;;;;9996185;28;20021;-68
2021/08/12 10:26:02;;;;;;;6.88;3.92;;;27.30;62.80;;;;;;9996783;28;20042;-65
2021/08/12 10:30:53;;;;;;;6.18;4.18;;;27.40;62.60;;;;;;9997157;28;20392;-66
2021/08/12 10:35:45;;;;;;;6.68;3.88;;;27.50;62.30;;;;;;9999952;28;20046;-67
2021/08/12 10:40:39;;;;;;;6.50;3.92;;;27.40;62.30;;;;;;9997850;28;20503;-66
2021/08/12 10:45:30;;;;;;;5.70;4.50;;;27.60;61.80;;;;;;9995881;28;20325;-67
2021/08/12 10:50:26;;;;;;;6.55;4.13;;;27.50;61.70;;;;;;9994036;28;20038;-67
2021/08/12 10:55:17;;;;;;;6.68;4.30;;;27.70;61.80;;;;;;9996583;28;20146;-65
2021/08/12 11:00:44;;;;;;;5.25;4.25;;;27.40;62.00;;;;;;9997402;28;20038;-66
2021/08/12 11:06:04;;;;;;;5.97;4.72;;;27.50;61.80;;;;;;9998536;28;20031;-66
2021/08/12 11:10:55;;;;;;;5.95;4.45;;;27.60;61.00;;;;;;9996728;28;20022;-66
2021/08/12 11:15:48;;;;;;;6.13;4.05;;;27.60;61.60;;;;;;9995425;28;20530;-67
2021/08/12 11:20:41;;;;;;;7.97;4.57;;;27.80;61.10;;;;;;9996389;28;20567;-67
2021/08/12 11:25:55;;;;;;;5.57;4.25;;;27.90;61.00;;;;;;9993609;28;20037;-69
2021/08/12 11:30:46;;;;;;;7.43;5.00;;;27.90;60.90;;;;;;9991576;28;20520;-68
2021/08/12 11:36:29;;;;;;;6.40;3.70;;;28.10;60.90;;;;;;9993716;28;20050;-68
2021/08/12 11:41:20;;;;;;;6.50;3.90;;;28.10;60.40;;;;;;9988608;28;20087;-69
2021/08/12 11:46:13;;;;;;;4.03;3.20;;;28.00;61.00;;;;;;9998806;28;20049;-68
2021/08/12 11:51:04;;;;;;;5.25;4.03;;;28.10;60.80;;;;;;9993488;28;20562;-69
2021/08/12 11:55:55;;;;;;;5.78;3.95;;;28.20;60.50;;;;;;10001288;28;20030;-69
2021/08/12 12:00:46;;;;;;;6.43;4.15;;;28.30;60.10;;;;;;9998505;28;20091;-68
2021/08/12 12:05:38;;;;;;;5.38;3.67;;;28.60;59.90;;;;;;10000612;28;20436;-70
2021/08/12 12:10:31;;;;;;;4.10;3.63;;;28.80;59.70;;;;;;9995344;28;20089;-67
2021/08/12 12:15:33;;;;;;;9.63;4.73;;;29.10;59.40;;;;;;9994590;28;20053;-71
2021/08/12 12:20:25;;;;;;;7.63;3.65;;;29.30;59.30;;;;;;9991333;28;20044;-69
2021/08/12 12:25:19;;;;;;;5.78;4.38;;;29.50;59.20;;;;;;9995720;28;20025;-71
2021/08/12 12:30:12;;;;;;;9.45;4.70;;;29.70;58.90;;;;;;9995521;28;20046;-70
2021/08/12 12:35:06;;;;;;;4.50;3.63;;;30.00;58.90;;;;;;9998735;28;20093;-71
2021/08/12 12:39:57;;;;;;;5.28;3.92;;;30.40;58.60;;;;;;10000525;28;20030;-72
2021/08/12 12:44:59;;;;;;;5.72;4.03;;;30.80;58.30;;;;;;9990642;28;20061;-72
2021/08/12 12:49:50;;;;;;;6.40;4.43;;;31.20;57.30;;;;;;9991984;28;20038;-72
2021/08/12 12:54:43;;;;;;;4.88;4.40;;;31.70;57.40;;;;;;9999214;28;20046;-72
2021/08/12 12:59:34;;;;;;;6.15;3.65;;;31.80;57.00;;;;;;10004783;28;20037;-72
2021/08/12 13:04:25;;;;;;;4.17;3.77;;;31.90;56.20;;;;;;10004175;28;20416;-72
2021/08/12 13:09:36;;;;;;;4.10;3.17;;;32.00;55.50;;;;;;10019478;28;20026;-72
2021/08/12 13:14:36;;;;;;;5.05;4.28;;;33.40;53.40;;;;;;10003445;28;20045;-70
2021/08/12 13:19:28;;;;;;;4.28;3.80;;;34.30;51.70;;;;;;10003183;28;20113;-71
2021/08/12 13:24:34;;;;;;;5.20;3.53;;;35.50;50.10;;;;;;10000703;28;20026;-71
2021/08/12 13:29:33;;;;;;;4.50;4.10;;;36.50;47.80;;;;;;10014906;28;20041;-73
2021/08/12 13:34:24;;;;;;;5.00;3.97;;;37.60;45.50;;;;;;10005291;28;20137;-72
2021/08/12 13:39:15;;;;;;;6.22;4.43;;;38.70;43.60;;;;;;10003446;28;20393;-71
2021/08/12 13:44:06;;;;;;;4.57;4.18;;;38.90;42.60;;;;;;10003267;28;20040;-73
2021/08/12 13:48:57;;;;;;;5.97;4.38;;;39.40;41.30;;;;;;10003201;28;20032;-72
2021/08/12 13:53:47;;;;;;;6.35;4.22;;;38.10;41.00;;;;;;10003276;28;20277;-71
2021/08/12 13:58:38;;;;;;;5.47;3.97;;;36.90;42.40;;;;;;10002226;28;20503;-71
2021/08/12 14:03:29;;;;;;;4.97;4.20;;;38.40;40.10;;;;;;10004189;28;20092;-71
2021/08/12 14:08:19;;;;;;;6.00;4.30;;;39.10;39.20;;;;;;10014071;28;20115;-72
2021/08/12 14:13:10;;;;;;;5.40;4.60;;;40.10;37.70;;;;;;10001804;28;20045;-73
2021/08/12 14:18:01;;;;;;;3.92;3.50;;;40.80;37.80;;;;;;10001213;28;20053;-70
2021/08/12 14:22:51;;;;;;;4.88;4.05;;;41.00;36.40;;;;;;9996370;28;20030;-70
2021/08/12 14:27:45;;;;;;;4.40;3.78;;;40.80;36.00;;;;;;9991691;28;20037;-73
2021/08/12 14:32:37;;;;;;;5.45;4.40;;;41.00;35.60;;;;;;9997643;28;20042;-72
2021/08/12 14:37:27;;;;;;;5.38;4.47;;;41.30;34.90;;;;;;10000479;28;20036;-72
2021/08/12 14:42:21;;;;;;;4.50;4.10;;;41.40;34.40;;;;;;9999904;28;20040;-70
2021/08/12 14:47:12;;;;;;;5.05;4.32;;;41.10;34.60;;;;;;9997643;28;20045;-69
2021/08/12 14:52:03;;;;;;;5.30;4.05;;;40.90;33.10;;;;;;10001762;28;20110;-72
2021/08/12 14:56:53;;;;;;;5.70;4.57;;;40.70;32.40;;;;;;9998772;28;20250;-70
2021/08/12 15:01:44;;;;;;;5.53;4.35;;;40.70;31.80;;;;;;10000776;28;20084;-72
2021/08/12 15:06:34;;;;;;;4.50;4.10;;;40.50;31.60;;;;;;9996507;28;20270;-70
2021/08/12 15:11:25;;;;;;;4.65;4.03;;;40.10;31.30;;;;;;9993644;28;20049;-71
2021/08/12 15:16:16;;;;;;;5.30;4.30;;;39.90;31.30;;;;;;9997261;28;20050;-72
2021/08/12 15:21:07;;;;;;;5.15;3.92;;;40.60;30.60;;;;;;10001345;28;20037;-71
2021/08/12 15:25:57;;;;;;;8.70;6.30;;;39.50;30.60;;;;;;10002400;28;20084;-72
2021/08/12 15:30:48;;;;;;;6.63;5.93;;;40.10;30.30;;;;;;10000193;28;20507;-68
2021/08/12 15:35:39;;;;;;;4.85;4.30;;;40.90;29.70;;;;;;9997466;28;20230;-72
2021/08/12 15:40:29;;;;;;;5.40;4.90;;;41.20;29.60;;;;;;10001399;28;20030;-71
2021/08/12 15:45:20;;;;;;;6.15;4.80;;;41.50;29.40;;;;;;10003739;28;20069;-72
2021/08/12 15:50:11;;;;;;;5.60;4.75;;;42.00;29.20;;;;;;10014294;28;20057;-68
2021/08/12 15:55:06;;;;;;;5.78;3.80;;;42.20;29.00;;;;;;10001094;28;20049;-69
2021/08/12 15:59:57;;;;;;;5.20;3.85;;;42.60;28.80;;;;;;10001535;28;20026;-64
2021/08/12 16:04:48;;;;;;;5.97;4.43;;;42.60;28.60;;;;;;10000640;28;20034;-69
2021/08/12 16:09:38;;;;;;;6.10;4.78;;;43.30;28.10;;;;;;9997874;28;20037;-66
2021/08/12 16:14:29;;;;;;;4.78;4.07;;;42.20;28.60;;;;;;9997229;28;20041;-74
2021/08/12 16:19:19;;;;;;;4.90;4.40;;;43.10;28.20;;;;;;9995382;28;20085;-69
2021/08/12 16:24:10;;;;;;;5.75;4.13;;;43.40;28.00;;;;;;9994060;28;20369;-70
2021/08/12 16:29:01;;;;;;;5.50;4.13;;;44.00;27.50;;;;;;9996881;28;20485;-66
2021/08/12 16:33:51;;;;;;;5.10;3.85;;;43.40;27.80;;;;;;10007100;28;20061;-68
2021/08/12 16:38:42;;;;;;;5.80;4.63;;;43.90;27.40;;;;;;10006525;28;20072;-69
2021/08/12 16:43:33;;;;;;;5.22;3.80;;;44.20;27.40;;;;;;10006318;28;20077;-62
2021/08/12 16:48:23;;;;;;;4.85;4.35;;;43.80;27.40;;;;;;10008632;28;20646;-71
2021/08/12 16:53:14;;;;;;;8.40;4.72;;;43.30;27.60;;;;;;10006992;28;20049;-67
2021/08/12 16:58:05;;;;;;;5.45;3.80;;;42.70;28.10;;;;;;10005223;28;20029;-66
2021/08/12 17:02:55;;;;;;;4.40;4.00;;;43.30;27.60;;;;;;9998436;28;20042;-77
2021/08/12 17:07:46;;;;;;;6.35;3.63;;;42.60;28.00;;;;;;9998505;28;20105;-68
2021/08/12 17:12:37;;;;;;;4.43;3.75;;;41.90;28.30;;;;;;10004986;28;20025;-67
2021/08/12 17:17:27;;;;;;;6.75;4.40;;;42.60;28.00;;;;;;9999989;28;20374;-70
2021/08/12 17:22:18;;;;;;;4.35;3.95;;;43.50;27.30;;;;;;10004948;28;20033;-67
2021/08/12 17:27:20;;;;;;;4.78;4.07;;;42.80;27.60;;;;;;10003700;28;20610;-69
2021/08/12 17:32:11;;;;;;;4.38;3.60;;;41.10;28.70;;;;;;10004597;28;21994;-65
2021/08/12 17:37:02;;;;;;;4.93;4.33;;;40.20;29.40;;;;;;9999337;28;20638;-67
2021/08/12 17:41:52;;;;;;;6.15;4.47;;;38.00;30.90;;;;;;10004045;28;20198;-69
2021/08/12 17:46:43;;;;;;;6.55;4.32;;;35.90;33.20;;;;;;9999927;28;20042;-67
2021/08/12 17:51:34;;;;;;;5.63;4.07;;;34.60;34.40;;;;;;10004536;28;20171;-69
2021/08/12 17:56:25;;;;;;;4.22;3.83;;;33.80;35.30;;;;;;10002754;28;20034;-69
2021/08/12 18:01:17;;;;;;;6.47;4.38;;;33.40;35.90;;;;;;10001095;28;20558;-68
2021/08/12 18:06:08;;;;;;;6.47;3.78;;;33.10;36.40;;;;;;10000126;28;20026;-69
2021/08/12 18:10:58;;;;;;;6.05;4.63;;;32.80;36.90;;;;;;10002101;28;20494;-69
2021/08/12 18:15:49;;;;;;;7.50;4.55;;;32.70;37.40;;;;;;10000632;28;20041;-69
2021/08/12 18:20:40;;;;;;;6.15;4.25;;;32.60;37.80;;;;;;9993455;28;20034;-68
2021/08/12 18:25:31;;;;;;;5.43;4.07;;;32.30;38.30;;;;;;9999675;28;20042;-70
2021/08/12 18:30:22;;;;;;;5.93;4.25;;;32.20;39.20;;;;;;9997494;28;20014;-69
2021/08/12 18:35:12;;;;;;;6.40;4.60;;;32.00;39.50;;;;;;9994286;28;20026;-70
2021/08/12 18:40:04;;;;;;;7.50;4.43;;;31.80;40.10;;;;;;10000799;28;20030;-71
2021/08/12 18:44:55;;;;;;;7.43;4.60;;;31.60;40.50;;;;;;10006663;28;20125;-70
2021/08/12 18:49:46;;;;;;;5.00;3.90;;;31.50;40.90;;;;;;10003075;28;20120;-68
2021/08/12 18:54:36;;;;;;;7.03;5.00;;;31.30;41.50;;;;;;10002735;28;20033;-68
2021/08/12 18:59:27;;;;;;;7.82;4.35;;;31.20;41.90;;;;;;10002922;28;20040;-70
2021/08/12 19:04:18;;;;;;;8.07;5.78;;;31.10;42.30;;;;;;10002015;28;20248;-68
2021/08/12 19:09:08;;;;;;;8.23;4.50;;;31.10;42.70;;;;;;9999176;28;20028;-69
2021/08/12 19:13:59;;;;;;;7.90;5.10;;;31.00;43.10;;;;;;9997542;28;20390;-67
2021/08/12 19:18:50;;;;;;;9.23;5.38;;;30.90;43.50;;;;;;10000878;28;20041;-69
2021/08/12 19:23:40;;;;;;;7.75;5.05;;;30.80;43.80;;;;;;9997425;28;20030;-66
2021/08/12 19:28:31;;;;;;;9.27;5.30;;;30.80;44.20;;;;;;9995002;28;20033;-66
2021/08/12 19:33:21;;;;;;;7.28;5.00;;;30.70;44.40;;;;;;9995636;28;20058;-67
2021/08/12 19:38:12;;;;;;;7.50;4.28;;;30.60;44.70;;;;;;9997861;28;20563;-67
2021/08/12 19:43:03;;;;;;;9.75;5.55;;;30.60;45.00;;;;;;9998464;28;20104;-67
2021/08/12 19:47:56;;;;;;;8.60;5.78;;;30.50;45.20;;;;;;9997473;28;20410;-67
2021/08/12 19:52:47;;;;;;;7.97;5.50;;;30.40;45.50;;;;;;9995123;28;20030;-67
2021/08/12 19:57:38;;;;;;;6.40;4.63;;;30.30;46.60;;;;;;9995850;28;20530;-68
2021/08/12 20:02:29;;;;;;;8.73;4.65;;;30.30;46.10;;;;;;10003912;28;20126;-66
2021/08/12 20:07:19;;;;;;;6.95;4.88;;;30.20;46.50;;;;;;9997366;28;20117;-65
2021/08/12 20:12:10;;;;;;;9.95;5.75;;;30.10;46.90;;;;;;9995806;28;20108;-66
2021/08/12 20:17:01;;;;;;;8.45;5.55;;;29.90;47.70;;;;;;9993829;28;20074;-63
2021/08/12 20:21:52;;;;;;;8.65;5.20;;;29.80;47.20;;;;;;9996687;28;20026;-68
2021/08/12 20:26:43;;;;;;;9.30;5.25;;;29.70;47.50;;;;;;9992567;28;20121;-69
2021/08/12 20:31:33;;;;;;;10.80;5.80;;;29.60;47.80;;;;;;9994875;28;20046;-70
2021/08/12 20:36:25;;;;;;;7.28;4.88;;;29.50;47.80;;;;;;9996680;28;20132;-68
2021/08/12 20:41:15;;;;;;;7.03;5.40;;;29.40;48.00;;;;;;9994445;28;20465;-67
2021/08/12 20:46:06;;;;;;;7.55;4.80;;;29.30;48.00;;;;;;9995350;28;20046;-67
2021/08/12 20:50:57;;;;;;;9.05;5.15;;;29.30;48.10;;;;;;9990550;28;20140;-66
2021/08/12 20:55:47;;;;;;;8.18;5.70;;;29.20;48.10;;;;;;9999217;28;20034;-71
2021/08/12 21:00:38;;;;;;;10.10;5.53;;;29.10;48.40;;;;;;9996095;28;20022;-66
2021/08/12 21:05:32;;;;;;;8.50;5.50;;;29.00;48.40;;;;;;9990488;28;20096;-67
2021/08/12 21:10:23;;;;;;;7.25;5.18;;;28.80;48.70;;;;;;9999603;28;20511;-71
2021/08/12 21:15:13;;;;;;;8.32;5.57;;;28.70;49.00;;;;;;10004648;28;20046;-67
2021/08/12 21:20:06;;;;;;;9.88;5.55;;;28.60;49.10;;;;;;10008040;28;20033;-68
2021/08/12 21:24:56;;;;;;;11.07;5.60;;;28.70;49.40;;;;;;9997416;28;20331;-69
2021/08/12 21:29:47;;;;;;;9.90;6.53;;;28.60;49.60;;;;;;9999034;28;20303;-72
2021/08/12 21:34:37;;;;;;;7.40;5.72;;;28.50;49.70;;;;;;9997272;28;20053;-72
2021/08/12 21:39:28;;;;;;;11.48;6.45;;;28.40;50.40;;;;;;10004204;28;20029;-69
2021/08/12 21:44:19;;;;;;;10.75;5.78;;;28.20;50.80;;;;;;9995508;28;20048;-66
2021/08/12 21:49:09;;;;;;;9.52;5.85;;;27.90;51.30;;;;;;10000417;28;20036;-68
2021/08/12 21:54:00;;;;;;;8.65;5.63;;;27.50;52.40;;;;;;10007131;28;20030;-65
2021/08/12 21:58:52;;;;;;;9.00;5.63;;;27.50;52.50;;;;;;9998839;28;20109;-69
2021/08/12 22:03:43;;;;;;;8.57;5.90;;;27.40;53.00;;;;;;10006399;28;20116;-71
2021/08/12 22:08:33;;;;;;;8.98;5.60;;;27.40;53.30;;;;;;9994310;28;20136;-74
2021/08/12 22:13:24;;;;;;;10.25;6.43;;;27.50;53.30;;;;;;9999780;28;20513;-72
2021/08/12 22:18:15;;;;;;;10.82;6.25;;;27.40;53.70;;;;;;10000779;28;20037;-71
2021/08/12 22:23:06;;;;;;;8.02;5.75;;;27.50;53.60;;;;;;10004111;28;20054;-72
2021/08/12 22:27:59;;;;;;;9.32;5.85;;;27.70;53.60;;;;;;9995743;28;20112;-73
2021/08/12 22:32:50;;;;;;;10.43;5.88;;;27.80;53.40;;;;;;10002540;28;20484;-72
2021/08/12 22:37:41;;;;;;;10.45;5.50;;;27.80;53.50;;;;;;9997376;28;20045;-74
2021/08/12 22:42:32;;;;;;;10.25;6.30;;;27.90;53.70;;;;;;10000734;28;20038;-73
2021/08/12 22:47:23;;;;;;;8.40;5.60;;;27.80;53.80;;;;;;9992746;28;20101;-70
2021/08/12 22:52:17;;;;;;;9.13;6.25;;;27.70;54.00;;;;;;9997734;28;20116;-69
2021/08/12 22:57:08;;;;;;;9.90;5.90;;;27.70;54.30;;;;;;10000532;28;20044;-76
2021/08/12 23:01:59;;;;;;;8.32;5.72;;;27.50;54.50;;;;;;10002096;28;20064;-68
2021/08/12 23:06:49;;;;;;;17.55;6.95;;;27.50;54.70;;;;;;9994518;28;20033;-68
2021/08/12 23:11:40;;;;;;;11.85;6.47;;;27.50;54.80;;;;;;10000644;28;20052;-71
2021/08/12 23:16:31;;;;;;;10.60;6.28;;;27.50;54.90;;;;;;10001368;28;20080;-72
2021/08/12 23:21:21;;;;;;;10.77;6.70;;;27.50;55.10;;;;;;9993142;28;20045;-71
2021/08/12 23:26:12;;;;;;;9.40;6.13;;;27.40;55.00;;;;;;9991861;28;20045;-75
2021/08/12 23:31:04;;;;;;;11.25;6.10;;;27.50;55.20;;;;;;9995165;28;20029;-72
2021/08/12 23:35:57;;;;;;;9.80;6.75;;;27.40;55.50;;;;;;10000180;28;20018;-66
2021/08/12 23:40:47;;;;;;;10.50;5.53;;;27.20;56.10;;;;;;9999474;28;20041;-66
2021/08/12 23:45:38;;;;;;;10.52;5.72;;;26.70;57.30;;;;;;9992908;28;20061;-67
2021/08/12 23:50:29;;;;;;;8.75;5.85;;;26.60;58.00;;;;;;9997934;28;20915;-66
2021/08/12 23:55:19;;;;;;;9.00;5.68;;;26.40;58.40;;;;;;9991471;28;20128;-66
